RJFC(METAR)
08/23 18:00
RJFC 230900Z 04006KT 9999 FEW020 SCTXXX 29/27 Q1010 RMK A2984=
戻る
トップページへ戻る
IMOC Co,.Ltd.